North Beach, Maryland
Current Conditions -  °F | °C
As of 7:54 AM on Sunday 23 Nov 2014 (Local Time) from KNAK Reporting Station
Clear Clear  
Wind Chill: 40°   Ceiling: Unl
Heat Index: 40°   Visibility: 10mi
Dew Point: 24°   Wind: 0mph
Humidity: 53%   Direction: NA
Pressure: 30.24"   Gusts: NA
Location:  38.71°N, 76.53°W
Report Text: KNAK 231254Z AUTO 00000KT 10SM CLR 04/M04 A3024 RMK AO2 SLP243 T00441044
Loading
Personal Weather Stations






























Interactive Weather Map New forecast layout! Learn more

10-Day Weather Forecast

Advertisements
Track Severe Weather on mobile